Time;durP1;ratioP1;P1;durP2;ratioP2;P2;SDS_P1;SDS_P2;PMS_P1;PMS_P2;Temp;Humidity;BMP_temperature;BMP_pressure;BME280_temperature;BME280_humidity;BME280_pressure;Samples;Min_cycle;Max_cycle;Signal;HPM_P1;HPM_P2
2022/03/31 00:00:22;;;;;;;0.30;0.10;;;15.90;41.40;;;;;;5136265;27;20038;-71
2022/03/31 00:02:48;;;;;;;0.95;0.00;;;16.00;41.30;;;;;;5135594;27;20095;-73
2022/03/31 00:05:14;;;;;;;0.35;0.00;;;15.90;41.30;;;;;;5136258;27;20035;-72
2022/03/31 00:07:49;;;;;;;0.20;0.00;;;16.00;41.40;;;;;;5136310;27;20128;-72
2022/03/31 00:10:20;;;;;;;0.40;0.08;;;15.90;41.40;;;;;;5136428;27;20046;-73
2022/03/31 00:12:45;;;;;;;;;;;15.90;41.30;;;;;;5136375;27;20095;-67
2022/03/31 00:15:11;;;;;;;0.43;0.00;;;15.90;41.50;;;;;;5136109;27;19915;-72
2022/03/31 00:17:37;;;;;;;0.65;0.10;;;15.90;41.40;;;;;;5154114;27;20432;-72
2022/03/31 00:20:03;;;;;;;0.52;0.10;;;15.90;41.40;;;;;;5135869;27;20615;-72
2022/03/31 00:22:29;;;;;;;0.98;0.10;;;15.90;41.30;;;;;;5154211;27;20077;-71
2022/03/31 00:24:54;;;;;;;0.32;0.03;;;15.90;41.20;;;;;;5154328;27;20073;-71
2022/03/31 00:27:21;;;;;;;0.52;0.10;;;15.90;41.30;;;;;;5135691;27;20068;-72
2022/03/31 00:29:47;;;;;;;1.27;0.10;;;15.90;41.30;;;;;;5136010;27;20053;-71
2022/03/31 00:32:13;;;;;;;0.55;0.10;;;15.80;41.30;;;;;;5135424;27;20389;-71
2022/03/31 00:34:45;;;;;;;0.30;0.10;;;15.80;41.30;;;;;;5135607;27;20477;-72
2022/03/31 00:37:11;;;;;;;0.82;0.10;;;15.80;41.40;;;;;;5135107;27;20038;-71
2022/03/31 00:39:36;;;;;;;0.38;0.00;;;15.90;41.40;;;;;;5154131;27;20047;-71
2022/03/31 00:42:03;;;;;;;0.88;0.10;;;15.80;41.30;;;;;;5135455;27;20468;-72
2022/03/31 00:44:29;;;;;;;0.10;0.00;;;15.80;41.30;;;;;;5153961;27;20034;-72
2022/03/31 00:46:56;;;;;;;0.35;0.10;;;15.80;42.10;;;;;;5135504;27;20039;-67
2022/03/31 00:49:24;;;;;;;0.75;0.10;;;15.80;41.30;;;;;;5135400;27;20066;-71
2022/03/31 00:51:52;;;;;;;0.10;0.00;;;15.70;41.30;;;;;;5135433;27;20046;-72
2022/03/31 00:54:22;;;;;;;0.15;0.00;;;15.80;41.40;;;;;;5135546;27;20092;-71
2022/03/31 00:56:49;;;;;;;0.93;0.10;;;15.80;41.40;;;;;;5135510;27;20034;-66
2022/03/31 00:59:18;;;;;;;0.63;0.10;;;15.80;41.40;;;;;;5153755;27;20107;-71
2022/03/31 01:01:45;;;;;;;1.10;0.10;;;15.80;41.40;;;;;;5134745;27;20041;-71
2022/03/31 01:04:11;;;;;;;0.43;0.08;;;15.70;41.40;;;;;;5135323;27;20042;-71
2022/03/31 01:06:37;;;;;;;0.13;0.10;;;15.80;41.40;;;;;;5134963;27;20148;-73
2022/03/31 01:09:04;;;;;;;0.35;0.10;;;15.70;41.40;;;;;;5134788;27;20106;-70
2022/03/31 01:11:31;;;;;;;0.20;0.00;;;15.70;41.40;;;;;;5135355;27;20050;-72
2022/03/31 01:13:57;;;;;;;1.35;0.10;;;15.70;41.30;;;;;;5135018;27;20114;-72
2022/03/31 01:16:28;;;;;;;0.50;0.00;;;15.80;41.30;;;;;;5135081;27;20047;-71
2022/03/31 01:18:54;;;;;;;0.15;0.08;;;15.70;41.30;;;;;;5134704;27;20492;-71
2022/03/31 01:21:19;;;;;;;0.60;0.10;;;15.80;41.30;;;;;;5134711;27;20045;-71
2022/03/31 01:23:46;;;;;;;0.47;0.00;;;15.70;41.30;;;;;;5134381;27;20085;-67
2022/03/31 01:26:12;;;;;;;0.47;0.00;;;15.80;41.40;;;;;;5134542;27;20501;-70
2022/03/31 01:28:43;;;;;;;0.55;0.00;;;15.80;41.40;;;;;;5135108;27;20050;-70
2022/03/31 01:31:10;;;;;;;0.47;0.00;;;15.90;41.40;;;;;;5135272;27;20091;-72
2022/03/31 01:33:37;;;;;;;0.47;0.00;;;16.00;41.20;;;;;;5134939;27;20091;-72
2022/03/31 01:36:06;;;;;;;0.47;0.00;;;16.20;41.00;;;;;;5134872;27;20066;-70
2022/03/31 01:38:32;;;;;;;0.45;0.00;;;16.40;40.70;;;;;;5153918;27;20038;-71
2022/03/31 01:40:58;;;;;;;0.30;0.00;;;16.60;40.30;;;;;;5135821;27;20046;-70
2022/03/31 01:43:23;;;;;;;0.30;0.00;;;16.90;40.00;;;;;;5134840;27;20047;-71
2022/03/31 01:45:49;;;;;;;0.22;0.00;;;17.20;39.50;;;;;;5134962;27;20126;-71
2022/03/31 01:48:16;;;;;;;1.38;0.08;;;17.50;39.00;;;;;;5135099;27;20039;-71
2022/03/31 01:50:43;;;;;;;0.52;0.00;;;17.90;38.50;;;;;;5134750;27;20125;-71
2022/03/31 01:53:09;;;;;;;1.35;0.10;;;18.20;38.20;;;;;;5153272;27;20130;-71
2022/03/31 01:55:35;;;;;;;0.30;0.00;;;18.40;37.80;;;;;;5134680;27;20088;-71
2022/03/31 01:58:01;;;;;;;0.10;0.00;;;18.60;37.40;;;;;;5134538;27;20443;-71
2022/03/31 02:00:26;;;;;;;0.28;0.00;;;18.80;37.10;;;;;;5134741;27;20034;-71
2022/03/31 02:02:52;;;;;;;0.20;0.00;;;19.10;36.70;;;;;;5134957;27;20473;-71
2022/03/31 02:05:18;;;;;;;0.68;0.00;;;19.20;36.40;;;;;;5134263;27;20509;-71
2022/03/31 02:07:43;;;;;;;0.43;0.00;;;19.40;36.10;;;;;;5134620;27;20035;-71
2022/03/31 02:10:11;;;;;;;0.40;0.00;;;19.60;35.90;;;;;;5134398;27;20042;-71
2022/03/31 02:12:37;;;;;;;0.70;0.00;;;19.70;35.70;;;;;;5134470;27;20053;-73
2022/03/31 02:15:04;;;;;;;1.23;0.10;;;19.80;35.50;;;;;;5134222;27;20078;-71
2022/03/31 02:17:30;;;;;;;0.10;0.00;;;19.90;35.30;;;;;;5134236;27;20052;-71
2022/03/31 02:19:56;;;;;;;0.40;0.10;;;20.00;35.10;;;;;;5134382;27;20394;-71
2022/03/31 02:22:22;;;;;;;0.32;0.00;;;20.10;34.90;;;;;;5134596;27;20042;-67
2022/03/31 02:24:48;;;;;;;0.20;0.00;;;20.30;34.90;;;;;;5153953;27;20041;-72
2022/03/31 02:27:14;;;;;;;0.65;0.15;;;20.40;34.70;;;;;;5156439;27;20058;-72
2022/03/31 02:29:39;;;;;;;0.17;0.00;;;20.40;34.40;;;;;;5137721;27;20389;-72
2022/03/31 02:32:09;;;;;;;0.30;0.10;;;20.50;34.30;;;;;;5138009;27;20046;-72
2022/03/31 02:34:37;;;;;;;0.57;0.20;;;20.60;34.30;;;;;;5138284;27;20142;-72
2022/03/31 02:37:04;;;;;;;0.28;0.00;;;20.70;34.00;;;;;;5137726;27;20064;-73
2022/03/31 02:39:33;;;;;;;0.50;0.00;;;20.80;33.90;;;;;;5156462;27;20071;-72
2022/03/31 02:42:00;;;;;;;1.48;0.00;;;21.00;33.80;;;;;;5137719;27;20470;-72
2022/03/31 02:44:29;;;;;;;0.80;0.00;;;21.00;33.70;;;;;;5156484;27;20070;-73
2022/03/31 02:46:54;;;;;;;0.43;0.08;;;21.00;33.50;;;;;;5137402;27;20039;-73
2022/03/31 02:49:20;;;;;;;1.05;0.00;;;21.00;33.40;;;;;;5137432;27;20091;-72
2022/03/31 02:51:46;;;;;;;0.35;0.00;;;21.10;33.30;;;;;;5137892;27;20042;-72
2022/03/31 02:56:57;;;;;;;0.13;0.00;;;21.20;33.20;;;;;;5137510;27;20095;-72
2022/03/31 02:59:23;;;;;;;0.30;0.00;;;21.20;33.20;;;;;;5137864;27;20496;-71
2022/03/31 03:01:49;;;;;;;1.17;0.00;;;21.20;33.10;;;;;;5137711;27;20073;-71
2022/03/31 03:04:15;;;;;;;0.40;0.00;;;21.30;33.00;;;;;;5137536;27;20470;-73
2022/03/31 03:06:41;;;;;;;0.10;0.00;;;21.30;33.00;;;;;;5137615;27;20118;-72
2022/03/31 03:09:07;;;;;;;0.35;0.00;;;21.30;33.00;;;;;;5137259;27;20103;-73
2022/03/31 03:11:34;;;;;;;0.63;0.00;;;21.30;33.00;;;;;;5137167;27;20046;-73
2022/03/31 03:14:00;;;;;;;0.32;0.05;;;21.20;33.00;;;;;;5137390;27;20087;-72
2022/03/31 03:16:25;;;;;;;0.30;0.00;;;21.20;33.10;;;;;;5154986;27;20413;-72
2022/03/31 03:18:52;;;;;;;0.47;0.00;;;21.10;33.20;;;;;;5155217;27;20043;-74
2022/03/31 03:21:19;;;;;;;0.20;0.10;;;21.10;33.30;;;;;;5137457;27;20118;-73
2022/03/31 03:23:45;;;;;;;1.08;0.00;;;21.10;33.30;;;;;;5136835;27;20034;-68
2022/03/31 03:26:12;;;;;;;0.10;0.00;;;21.10;33.20;;;;;;5136430;27;20041;-73
2022/03/31 03:28:38;;;;;;;0.25;0.00;;;21.10;33.20;;;;;;5136611;27;20054;-75
2022/03/31 03:31:04;;;;;;;0.40;0.00;;;21.20;33.20;;;;;;5137088;27;20051;-74
2022/03/31 03:33:30;;;;;;;0.73;0.00;;;21.20;33.00;;;;;;5120000;27;20118;-74
2022/03/31 03:35:56;;;;;;;0.30;0.00;;;21.20;32.90;;;;;;5120048;27;20126;-73
2022/03/31 03:38:22;;;;;;;0.40;0.00;;;21.30;32.90;;;;;;5136719;27;20453;-73
2022/03/31 03:40:48;;;;;;;0.38;0.00;;;21.30;32.90;;;;;;5136992;27;20549;-73
2022/03/31 03:43:13;;;;;;;0.28;0.00;;;21.30;32.80;;;;;;5136604;27;20522;-74
2022/03/31 03:45:39;;;;;;;0.20;0.10;;;21.40;32.80;;;;;;5154488;27;20462;-73
2022/03/31 03:48:07;;;;;;;0.22;0.00;;;21.40;32.80;;;;;;5136845;27;20493;-73
2022/03/31 03:50:33;;;;;;;0.38;0.00;;;21.40;32.70;;;;;;5155081;27;20462;-73
2022/03/31 03:53:03;;;;;;;0.20;0.00;;;21.40;32.60;;;;;;5136790;27;20038;-73
2022/03/31 03:55:32;;;;;;;0.77;0.05;;;21.50;32.60;;;;;;5136927;27;20050;-73
2022/03/31 03:57:59;;;;;;;0.47;0.00;;;21.50;32.60;;;;;;5155064;27;20043;-73
2022/03/31 04:00:28;;;;;;;0.38;0.10;;;21.50;32.60;;;;;;5135961;27;20474;-74
2022/03/31 04:02:54;;;;;;;0.10;0.00;;;21.50;32.50;;;;;;5136569;27;20542;-74
2022/03/31 04:05:21;;;;;;;0.17;0.00;;;21.50;32.60;;;;;;5136089;27;20039;-73
2022/03/31 04:07:46;;;;;;;0.30;0.00;;;21.50;32.60;;;;;;5136251;27;20098;-73
2022/03/31 04:10:13;;;;;;;0.17;0.00;;;21.60;33.30;;;;;;5136011;27;20050;-73
2022/03/31 04:12:39;;;;;;;0.30;0.00;;;21.60;32.60;;;;;;5136023;27;20046;-73
2022/03/31 04:15:06;;;;;;;1.17;0.00;;;21.60;32.60;;;;;;5136075;27;20055;-73
2022/03/31 04:17:32;;;;;;;0.20;0.00;;;21.60;32.60;;;;;;5135878;27;20046;-73
2022/03/31 04:19:57;;;;;;;0.73;0.10;;;21.60;32.50;;;;;;5135573;27;20050;-73
2022/03/31 04:22:23;;;;;;;0.10;0.00;;;21.60;32.50;;;;;;5136015;27;20030;-74
2022/03/31 04:24:49;;;;;;;0.20;0.00;;;21.60;32.40;;;;;;5135779;27;20034;-73
2022/03/31 04:27:14;;;;;;;0.28;0.00;;;21.70;32.40;;;;;;5154359;27;20047;-73
2022/03/31 04:29:40;;;;;;;0.17;0.00;;;21.70;32.30;;;;;;5135715;27;20043;-74
2022/03/31 04:32:06;;;;;;;0.35;0.00;;;21.80;32.20;;;;;;5154163;27;20125;-73
2022/03/31 04:34:32;;;;;;;0.05;0.00;;;21.80;32.10;;;;;;5135768;27;20064;-73
2022/03/31 04:36:58;;;;;;;0.60;0.00;;;21.90;32.10;;;;;;5135824;27;20043;-72
2022/03/31 04:39:24;;;;;;;0.22;0.00;;;22.00;32.10;;;;;;5135892;27;20476;-72
2022/03/31 04:41:52;;;;;;;0.25;0.00;;;22.00;32.00;;;;;;5118579;27;20046;-73
2022/03/31 04:44:19;;;;;;;0.30;0.00;;;22.10;32.00;;;;;;5135283;27;20030;-74
2022/03/31 04:46:45;;;;;;;0.20;0.00;;;22.00;31.80;;;;;;5135623;27;20042;-75
2022/03/31 04:49:17;;;;;;;0.28;0.00;;;22.00;31.80;;;;;;5153528;27;20091;-74
2022/03/31 04:51:43;;;;;;;0.00;0.00;;;22.00;31.80;;;;;;5135367;27;20047;-74
2022/03/31 04:54:11;;;;;;;0.43;0.00;;;22.00;31.80;;;;;;5153985;27;20045;-73
2022/03/31 04:56:39;;;;;;;0.25;0.00;;;22.00;31.70;;;;;;5135438;27;20046;-74
2022/03/31 04:59:08;;;;;;;0.00;0.00;;;22.10;31.70;;;;;;5135352;27;20492;-73
2022/03/31 05:01:37;;;;;;;0.25;0.00;;;22.10;31.70;;;;;;5153938;27;20026;-73
2022/03/31 05:04:03;;;;;;;0.40;0.00;;;22.00;31.60;;;;;;5135381;27;20034;-74
2022/03/31 05:06:29;;;;;;;0.30;0.00;;;22.00;31.60;;;;;;5153622;27;20053;-74
2022/03/31 05:08:55;;;;;;;0.90;0.00;;;22.00;31.70;;;;;;5135104;27;20485;-73
2022/03/31 05:11:21;;;;;;;0.10;0.00;;;22.00;31.70;;;;;;5135082;27;20083;-73
2022/03/31 05:13:46;;;;;;;0.00;0.00;;;22.00;31.70;;;;;;5135066;27;20046;-75
2022/03/31 05:16:12;;;;;;;0.00;0.00;;;22.00;31.70;;;;;;5119868;27;20386;-74
2022/03/31 05:18:38;;;;;;;0.43;0.00;;;22.00;31.70;;;;;;5131667;27;20055;-70
2022/03/31 05:21:04;;;;;;;0.80;0.00;;;22.00;32.20;;;;;;5113070;28;20394;-74
2022/03/31 05:23:30;;;;;;;0.20;0.00;;;21.90;32.60;;;;;;5114010;27;20046;-73
2022/03/31 05:25:55;;;;;;;0.30;0.00;;;21.80;32.90;;;;;;5125362;27;20118;-71
2022/03/31 05:28:21;;;;;;;0.73;0.00;;;21.70;33.00;;;;;;5113540;27;20486;-73
2022/03/31 05:30:47;;;;;;;0.95;0.00;;;21.70;33.30;;;;;;5129742;27;20382;-70
2022/03/31 05:33:13;;;;;;;0.88;0.00;;;21.60;33.50;;;;;;5123251;27;20079;-70
2022/03/31 05:35:38;;;;;;;0.13;0.00;;;21.60;33.50;;;;;;5119567;27;20049;-73
2022/03/31 05:38:04;;;;;;;0.10;0.00;;;21.60;33.50;;;;;;5111959;28;20078;-73
2022/03/31 05:40:30;;;;;;;0.75;0.00;;;21.70;33.60;;;;;;5111989;27;20107;-73
2022/03/31 05:42:56;;;;;;;0.00;0.00;;;21.70;33.60;;;;;;5122813;27;20047;-72
2022/03/31 05:45:22;;;;;;;0.10;0.00;;;21.70;33.50;;;;;;5124774;27;20039;-74
2022/03/31 05:47:53;;;;;;;0.35;0.00;;;21.80;33.50;;;;;;5144856;27;20035;-74
2022/03/31 05:50:18;;;;;;;;;;;21.80;33.40;;;;;;5113788;27;20043;-74
2022/03/31 05:52:44;;;;;;;0.47;0.28;;;21.80;33.50;;;;;;5122219;28;19930;-72
2022/03/31 05:55:13;;;;;;;0.88;0.30;;;21.80;33.50;;;;;;5121893;27;20135;-76
2022/03/31 05:57:39;;;;;;;0.50;0.10;;;21.90;33.40;;;;;;5102584;27;20043;-73
2022/03/31 06:00:07;;;;;;;0.03;0.00;;;21.80;33.20;;;;;;5120218;27;20101;-73
2022/03/31 06:02:33;;;;;;;0.55;0.00;;;21.80;33.20;;;;;;5121883;27;20373;-77
2022/03/31 06:04:59;;;;;;;0.30;0.00;;;21.80;33.10;;;;;;5098289;27;20036;-75
2022/03/31 06:07:24;;;;;;;1.23;0.00;;;21.80;33.00;;;;;;5109773;27;20509;-74
2022/03/31 06:09:50;;;;;;;0.65;0.00;;;22.00;32.90;;;;;;5114394;27;20096;-74
2022/03/31 06:12:16;;;;;;;1.02;0.00;;;22.00;32.60;;;;;;5114009;27;20483;-74
2022/03/31 06:14:42;;;;;;;3.22;0.03;;;22.00;32.50;;;;;;5152490;27;20111;-75
2022/03/31 06:17:08;;;;;;;0.68;0.00;;;22.00;32.50;;;;;;5129550;27;20482;-73
2022/03/31 06:19:34;;;;;;;1.35;0.00;;;22.00;32.50;;;;;;5116394;27;20069;-75
2022/03/31 06:22:00;;;;;;;2.47;0.05;;;22.10;32.60;;;;;;5141994;27;20039;-75
2022/03/31 06:24:25;;;;;;;1.33;0.10;;;22.10;32.40;;;;;;5133450;27;20070;-75
2022/03/31 06:26:51;;;;;;;1.25;0.00;;;22.10;32.40;;;;;;5120686;27;20494;-75
2022/03/31 06:29:19;;;;;;;0.35;0.00;;;22.10;32.40;;;;;;5116745;27;20043;-74
2022/03/31 06:31:45;;;;;;;0.38;0.00;;;22.20;32.60;;;;;;5121901;27;20374;-74
2022/03/31 06:34:14;;;;;;;0.17;0.00;;;22.30;32.60;;;;;;5103000;27;20035;-73
2022/03/31 06:36:43;;;;;;;0.10;0.00;;;22.50;32.60;;;;;;5096685;27;20039;-71
2022/03/31 06:39:09;;;;;;;0.38;0.10;;;22.50;32.60;;;;;;5101233;27;20043;-72
2022/03/31 06:41:34;;;;;;;1.73;0.10;;;22.50;32.70;;;;;;5093598;27;20233;-70
2022/03/31 06:44:00;;;;;;;4.07;0.30;;;22.40;32.70;;;;;;5099677;27;20096;-72
2022/03/31 06:46:26;;;;;;;4.82;0.60;;;22.30;34.10;;;;;;5098638;27;20047;-73
2022/03/31 06:48:52;;;;;;;1.33;0.20;;;22.20;33.80;;;;;;5101033;27;20046;-73
2022/03/31 06:51:18;;;;;;;0.77;0.10;;;22.10;34.20;;;;;;5120118;27;20586;-73
2022/03/31 06:53:44;;;;;;;1.60;0.13;;;21.90;34.20;;;;;;5106055;27;20077;-72
2022/03/31 06:56:13;;;;;;;3.40;0.10;;;21.80;34.70;;;;;;5113350;27;20054;-73
2022/03/31 06:58:40;;;;;;;1.55;0.10;;;21.70;35.20;;;;;;5100220;27;20050;-73
2022/03/31 07:01:06;;;;;;;1.75;1.00;;;21.60;35.50;;;;;;5099429;27;20067;-72
2022/03/31 07:03:31;;;;;;;2.17;0.10;;;21.60;35.80;;;;;;5094704;27;20069;-76
2022/03/31 07:05:57;;;;;;;1.80;0.20;;;21.60;35.80;;;;;;5099625;27;20103;-72
2022/03/31 07:08:24;;;;;;;2.50;0.05;;;21.70;35.60;;;;;;5097004;27;20057;-75
2022/03/31 07:10:50;;;;;;;0.40;0.10;;;21.80;35.40;;;;;;5096972;27;20053;-78
2022/03/31 07:13:16;;;;;;;0.47;0.10;;;22.00;35.30;;;;;;5117419;27;20489;-73
2022/03/31 07:15:42;;;;;;;1.40;0.10;;;22.10;35.10;;;;;;5099606;27;20040;-71
2022/03/31 07:18:08;;;;;;;0.68;0.10;;;22.20;35.00;;;;;;5093948;27;20039;-76
2022/03/31 07:20:36;;;;;;;2.05;0.10;;;22.20;34.90;;;;;;5113847;27;20393;-73
2022/03/31 07:23:02;;;;;;;1.52;0.10;;;22.20;34.90;;;;;;5094791;27;20034;-74
2022/03/31 07:25:28;;;;;;;6.00;0.20;;;22.20;34.90;;;;;;5091504;27;20043;-76
2022/03/31 07:27:55;;;;;;;4.75;0.10;;;22.20;35.00;;;;;;5093259;27;20070;-75
2022/03/31 07:30:22;;;;;;;2.97;0.10;;;22.10;35.00;;;;;;5090855;27;20044;-77
2022/03/31 07:35:33;;;;;;;0.68;0.00;;;22.00;35.10;;;;;;5059819;27;20481;-75
2022/03/31 07:38:03;;;;;;;3.85;0.03;;;21.80;35.40;;;;;;5065840;28;20036;-76
2022/03/31 07:40:29;;;;;;;1.00;0.10;;;21.70;35.60;;;;;;5052936;28;20049;-75
2022/03/31 07:42:55;;;;;;;1.50;0.05;;;21.50;35.60;;;;;;5049684;28;20397;-74
2022/03/31 07:45:21;;;;;;;1.35;0.10;;;21.40;36.10;;;;;;5048361;28;20097;-73
2022/03/31 07:47:47;;;;;;;1.38;0.10;;;21.30;36.50;;;;;;5053242;28;20036;-74
2022/03/31 07:50:16;;;;;;;0.45;0.00;;;21.10;36.70;;;;;;5065070;28;20067;-75
2022/03/31 07:52:42;;;;;;;4.10;0.10;;;21.00;37.10;;;;;;5050108;28;20048;-74
2022/03/31 07:55:11;;;;;;;3.13;0.10;;;20.90;37.30;;;;;;5063066;28;20131;-75
2022/03/31 07:57:38;;;;;;;1.52;0.00;;;20.70;37.50;;;;;;5046406;28;20645;-75
2022/03/31 08:00:05;;;;;;;0.80;0.10;;;20.70;37.80;;;;;;5050601;28;20045;-76
2022/03/31 08:02:30;;;;;;;3.17;0.17;;;20.60;38.00;;;;;;5046017;28;20488;-78
2022/03/31 08:04:56;;;;;;;1.13;0.10;;;20.60;38.10;;;;;;5048696;28;20055;-74
2022/03/31 08:07:21;;;;;;;2.17;0.20;;;20.70;38.20;;;;;;5067262;28;20094;-75
2022/03/31 08:09:47;;;;;;;1.30;0.10;;;20.60;38.10;;;;;;5053452;28;20036;-77
2022/03/31 08:12:13;;;;;;;1.33;0.10;;;20.70;38.20;;;;;;5050134;28;20960;-75
2022/03/31 08:14:39;;;;;;;1.50;0.10;;;20.80;38.20;;;;;;5050109;28;20389;-76
2022/03/31 08:17:05;;;;;;;0.17;0.00;;;20.80;38.20;;;;;;5066954;28;20037;-75
2022/03/31 08:19:32;;;;;;;2.95;0.10;;;20.80;38.20;;;;;;5046680;28;20033;-76
2022/03/31 08:22:01;;;;;;;1.95;0.13;;;20.80;38.20;;;;;;5050620;28;20037;-74
2022/03/31 08:24:27;;;;;;;3.22;0.10;;;20.90;38.30;;;;;;5051402;28;20036;-75
2022/03/31 08:26:53;;;;;;;2.10;0.10;;;20.90;38.30;;;;;;5051407;28;20044;-77
2022/03/31 08:29:19;;;;;;;0.50;0.10;;;20.90;38.30;;;;;;5055126;28;20050;-74
2022/03/31 08:31:45;;;;;;;0.75;0.10;;;20.90;38.40;;;;;;5068584;28;20045;-74
2022/03/31 08:34:10;;;;;;;4.05;0.20;;;20.90;38.40;;;;;;5044960;28;20061;-75
2022/03/31 08:36:36;;;;;;;1.95;0.30;;;20.90;38.60;;;;;;5050443;28;20051;-75
2022/03/31 08:39:05;;;;;;;4.03;0.30;;;20.90;38.60;;;;;;5049832;28;20033;-74
2022/03/31 08:41:34;;;;;;;7.70;0.95;;;20.80;38.20;;;;;;5054132;28;20044;-74
2022/03/31 08:44:00;;;;;;;4.10;0.60;;;20.70;38.00;;;;;;5052425;28;20041;-74
2022/03/31 08:46:31;;;;;;;1.23;0.60;;;20.60;37.80;;;;;;5039814;28;20052;-74
2022/03/31 08:48:57;;;;;;;2.60;0.73;;;20.60;37.40;;;;;;5037813;28;20037;-76
2022/03/31 08:51:24;;;;;;;5.63;0.60;;;20.50;38.10;;;;;;5033359;28;20045;-76
2022/03/31 08:53:50;;;;;;;3.22;0.45;;;20.50;39.20;;;;;;5037391;28;20037;-73
2022/03/31 08:56:16;;;;;;;3.95;0.35;;;20.50;38.80;;;;;;5056019;28;20055;-72
2022/03/31 08:58:44;;;;;;;1.52;0.30;;;20.70;38.70;;;;;;5034066;28;20116;-74
2022/03/31 09:01:12;;;;;;;5.68;0.40;;;20.90;38.60;;;;;;5039661;28;20033;-74
2022/03/31 09:03:38;;;;;;;2.85;0.30;;;21.10;38.70;;;;;;5035227;28;20507;-73
2022/03/31 09:06:05;;;;;;;3.83;0.40;;;21.30;38.70;;;;;;5032448;28;20793;-71
2022/03/31 09:08:31;;;;;;;5.43;0.40;;;21.50;38.90;;;;;;5038697;28;20132;-73
2022/03/31 09:11:00;;;;;;;2.35;0.20;;;21.50;38.90;;;;;;5038641;28;20036;-74
2022/03/31 09:16:10;;;;;;;1.60;0.17;;;21.60;38.90;;;;;;5092306;27;20468;-74
2022/03/31 09:18:37;;;;;;;3.77;0.40;;;21.70;39.00;;;;;;5100004;28;20044;-73
2022/03/31 09:21:05;;;;;;;4.10;0.20;;;21.80;39.10;;;;;;5082915;28;20282;-74
2022/03/31 09:23:46;;;;;;;4.55;0.40;;;21.70;39.10;;;;;;5083807;28;20039;-74
2022/03/31 09:26:14;;;;;;;4.13;0.38;;;21.70;39.50;;;;;;5072314;28;20032;-73
2022/03/31 09:28:43;;;;;;;3.35;0.30;;;21.70;39.30;;;;;;5075777;28;20395;-72
2022/03/31 09:31:10;;;;;;;3.10;0.50;;;21.70;39.70;;;;;;5093278;28;20055;-74
2022/03/31 09:33:41;;;;;;;3.13;0.20;;;21.70;39.90;;;;;;5068440;28;20051;-72
2022/03/31 09:39:07;;;;;;;3.40;0.60;;;21.60;40.20;;;;;;5055629;28;20497;-72
2022/03/31 09:41:34;;;;;;;2.03;0.22;;;21.40;42.50;;;;;;5045082;28;20555;-75
2022/03/31 09:44:03;;;;;;;3.88;0.30;;;21.20;41.70;;;;;;5041770;28;20037;-73
2022/03/31 09:46:33;;;;;;;1.40;0.25;;;21.10;42.00;;;;;;5037216;28;20053;-72
2022/03/31 09:49:09;;;;;;;2.20;0.40;;;21.00;42.30;;;;;;5050489;28;20595;-73
2022/03/31 09:51:34;;;;;;;1.60;0.20;;;20.90;42.60;;;;;;5036071;28;21046;-75
2022/03/31 09:54:00;;;;;;;3.15;0.32;;;20.80;42.90;;;;;;5038032;28;20041;-73
2022/03/31 09:56:26;;;;;;;1.05;0.30;;;20.80;43.20;;;;;;5039922;28;20125;-77
2022/03/31 09:58:53;;;;;;;2.88;0.30;;;20.70;43.30;;;;;;5034051;28;20405;-80
2022/03/31 10:01:20;;;;;;;3.28;0.40;;;20.70;43.60;;;;;;5035028;28;20046;-77
2022/03/31 10:03:45;;;;;;;3.17;0.25;;;20.60;43.80;;;;;;5036473;28;20513;-80
2022/03/31 10:06:13;;;;;;;2.30;0.25;;;20.70;43.90;;;;;;5033109;28;20072;-76
2022/03/31 10:08:42;;;;;;;2.55;0.20;;;20.70;44.00;;;;;;5038626;28;20136;-78
2022/03/31 10:11:10;;;;;;;1.00;0.20;;;20.70;44.00;;;;;;5039346;28;20068;-76
2022/03/31 10:16:38;;;;;;;6.15;0.25;;;20.70;44.20;;;;;;5087487;28;20336;-76
2022/03/31 10:19:04;;;;;;;3.38;0.20;;;20.70;44.20;;;;;;5089780;28;20051;-78
2022/03/31 10:21:30;;;;;;;5.72;0.40;;;20.80;43.80;;;;;;5084417;28;20399;-75
2022/03/31 10:27:01;;;;;;;3.95;1.10;;;21.30;42.40;;;;;;5088744;28;20040;-74
2022/03/31 10:29:37;;;;;;;5.03;0.98;;;21.60;40.30;;;;;;5090623;28;20044;-75
2022/03/31 10:32:15;;;;;;;1.88;0.20;;;21.80;38.70;;;;;;5092366;28;20047;-74
2022/03/31 10:34:44;;;;;;;3.80;0.30;;;22.00;37.70;;;;;;5100102;28;20843;-76
2022/03/31 10:37:11;;;;;;;0.60;0.17;;;22.20;37.00;;;;;;5105022;27;20121;-74
2022/03/31 10:39:37;;;;;;;2.58;0.20;;;22.30;36.10;;;;;;5091303;28;20042;-74
2022/03/31 10:42:08;;;;;;;4.10;0.40;;;22.40;35.70;;;;;;5088195;28;20048;-71
2022/03/31 10:44:34;;;;;;;2.15;0.40;;;22.40;35.60;;;;;;5082325;28;20127;-69
2022/03/31 10:49:37;;;;;;;6.72;0.70;;;22.60;36.10;;;;;;5060840;27;20415;-70
2022/03/31 10:52:23;;;;;;;5.35;0.20;;;23.10;35.90;;;;;;5055308;28;20041;-72
2022/03/31 10:55:02;;;;;;;4.60;0.20;;;23.30;36.10;;;;;;5068910;28;20041;-73
2022/03/31 10:57:38;;;;;;;5.63;0.20;;;23.40;35.90;;;;;;5069936;28;20132;-72
2022/03/31 11:00:07;;;;;;;1.33;0.20;;;23.50;35.80;;;;;;5053096;28;20048;-73
2022/03/31 11:02:39;;;;;;;2.75;0.20;;;23.50;35.60;;;;;;5055709;28;20068;-71
2022/03/31 11:05:06;;;;;;;3.25;0.10;;;23.50;35.60;;;;;;5052149;28;20037;-73
2022/03/31 11:07:31;;;;;;;5.05;0.20;;;23.40;35.80;;;;;;5054635;28;20049;-71
2022/03/31 11:10:13;;;;;;;1.60;0.10;;;23.30;36.10;;;;;;5055318;28;20044;-75
2022/03/31 11:12:40;;;;;;;3.22;0.15;;;23.20;36.50;;;;;;5077924;28;20037;-73
2022/03/31 11:15:08;;;;;;;4.63;0.10;;;23.00;36.70;;;;;;5062933;28;20055;-74
2022/03/31 11:17:35;;;;;;;4.45;0.10;;;22.80;37.10;;;;;;5068517;28;20033;-77
2022/03/31 11:20:12;;;;;;;2.50;0.30;;;22.70;37.20;;;;;;5057874;28;20044;-77
2022/03/31 11:22:37;;;;;;;0.28;0.10;;;22.50;37.50;;;;;;5062010;28;20101;-79
2022/03/31 11:25:11;;;;;;;2.45;0.10;;;22.40;37.80;;;;;;5041383;28;20033;-74
2022/03/31 11:27:39;;;;;;;2.75;0.25;;;22.20;38.10;;;;;;5051440;28;20136;-75
2022/03/31 11:32:44;;;;;;;3.03;0.20;;;21.90;38.20;;;;;;5127450;27;1164316;-73
2022/03/31 11:35:14;;;;;;;3.70;0.47;;;21.60;38.90;;;;;;5139134;27;20474;-72
2022/03/31 11:40:29;;;;;;;4.82;0.20;;;21.40;39.20;;;;;;5099350;27;20409;-75
2022/03/31 11:42:57;;;;;;;1.47;0.20;;;21.10;39.60;;;;;;5092704;28;20047;-77
2022/03/31 11:45:24;;;;;;;1.67;0.30;;;21.00;40.00;;;;;;5090617;28;20063;-73
2022/03/31 11:47:58;;;;;;;2.38;0.15;;;20.80;40.20;;;;;;5105497;28;20047;-75
2022/03/31 11:50:26;;;;;;;1.48;0.10;;;20.70;40.60;;;;;;5087491;28;20119;-76
2022/03/31 11:52:53;;;;;;;1.95;0.10;;;20.60;40.90;;;;;;5105371;28;20048;-77
2022/03/31 11:55:20;;;;;;;2.53;0.20;;;20.50;41.20;;;;;;5102182;28;20071;-76
2022/03/31 11:57:53;;;;;;;0.73;0.10;;;20.40;41.40;;;;;;5085963;28;20039;-76
2022/03/31 12:00:19;;;;;;;0.68;0.10;;;20.30;41.80;;;;;;5086836;28;20075;-72
2022/03/31 12:03:03;;;;;;;1.55;0.15;;;20.30;41.90;;;;;;5093526;28;20078;-76
2022/03/31 12:05:32;;;;;;;1.52;0.40;;;20.20;42.50;;;;;;5092828;28;20111;-76
2022/03/31 12:08:00;;;;;;;1.20;0.10;;;20.10;42.40;;;;;;5082363;28;20039;-78
2022/03/31 12:10:28;;;;;;;2.95;0.10;;;20.10;42.30;;;;;;5094665;28;20058;-73
2022/03/31 12:12:56;;;;;;;1.10;0.10;;;20.00;42.30;;;;;;5090641;28;20101;-75
2022/03/31 12:15:27;;;;;;;1.42;0.08;;;20.00;43.30;;;;;;5096817;28;20044;-73
2022/03/31 12:20:45;;;;;;;3.88;0.30;;;19.90;42.70;;;;;;5069544;27;20892;-70
2022/03/31 12:23:26;;;;;;;2.42;0.17;;;19.80;42.90;;;;;;5052396;28;20052;-73
2022/03/31 12:25:52;;;;;;;1.58;0.20;;;19.80;43.70;;;;;;5058348;28;20032;-73
2022/03/31 12:28:23;;;;;;;0.68;0.10;;;19.80;44.40;;;;;;5054900;28;20451;-72
2022/03/31 12:30:50;;;;;;;1.88;0.10;;;19.70;43.70;;;;;;5053060;28;20040;-72
2022/03/31 12:33:34;;;;;;;0.90;0.10;;;19.70;43.80;;;;;;5052635;28;20730;-72
2022/03/31 12:38:49;;;;;;;1.00;0.10;;;19.60;44.00;;;;;;5053342;28;20500;-72
2022/03/31 12:46:56;;;;;;;2.80;0.30;;;19.50;44.50;;;;;;5045246;28;20439;-73
2022/03/31 12:49:26;;;;;;;0.73;0.20;;;19.50;44.70;;;;;;5047649;28;20080;-79
2022/03/31 12:51:57;;;;;;;0.90;0.30;;;19.50;44.50;;;;;;5047015;28;20607;-76
2022/03/31 12:57:12;;;;;;;1.90;0.52;;;19.40;44.30;;;;;;5102321;27;1178223;-78
2022/03/31 12:59:40;;;;;;;3.22;0.40;;;19.30;44.20;;;;;;5109593;27;20046;-74
2022/03/31 13:02:10;;;;;;;1.25;0.30;;;19.30;44.00;;;;;;5109878;27;20045;-72
2022/03/31 13:04:40;;;;;;;2.05;0.35;;;19.30;44.20;;;;;;5110108;27;20035;-74
2022/03/31 13:07:17;;;;;;;2.30;0.40;;;19.20;44.30;;;;;;5125104;27;20074;-71
2022/03/31 13:09:44;;;;;;;2.70;0.60;;;19.20;44.30;;;;;;5106185;27;20297;-72
2022/03/31 13:12:11;;;;;;;2.25;0.45;;;19.20;44.10;;;;;;5106730;27;20122;-74
2022/03/31 13:14:39;;;;;;;2.22;0.20;;;19.20;44.00;;;;;;5108578;27;20038;-73
2022/03/31 13:17:07;;;;;;;0.98;0.30;;;19.20;44.10;;;;;;5104779;28;20483;-73
2022/03/31 13:19:33;;;;;;;4.43;0.30;;;19.30;44.30;;;;;;5105985;27;20122;-73
2022/03/31 13:22:01;;;;;;;1.67;0.38;;;19.50;44.10;;;;;;5130140;27;20718;-76
2022/03/31 13:24:26;;;;;;;4.45;0.68;;;19.90;43.80;;;;;;5128174;27;20031;-72
2022/03/31 13:26:52;;;;;;;0.98;0.35;;;20.20;42.70;;;;;;5104973;27;20049;-73